Time;durP1;ratioP1;P1;durP2;ratioP2;P2;SDS_P1;SDS_P2;PMS_P1;PMS_P2;Temp;Humidity;BMP_temperature;BMP_pressure;BME280_temperature;BME280_humidity;BME280_pressure;Samples;Min_cycle;Max_cycle;Signal;HPM_P1;HPM_P2
2023/10/28 00:01:34;;;;;;;7.00;1.08;;;;;;;13.17;100.00;93121.69;5057380;28;20123;-86
2023/10/28 00:04:02;;;;;;;6.10;1.10;;;;;;;13.04;100.00;93110.28;5057177;28;20120;-86
2023/10/28 00:06:28;;;;;;;13.05;1.50;;;;;;;13.09;100.00;93112.75;5057597;28;20040;-86
2023/10/28 00:08:53;;;;;;;3.35;0.73;;;;;;;13.99;99.87;93123.41;5073702;28;20033;-86
2023/10/28 00:11:19;;;;;;;2.38;1.20;;;;;;;14.23;92.94;93083.28;5073306;28;20120;-86
2023/10/28 00:14:03;;;;;;;6.78;0.88;;;;;;;13.83;100.00;93118.66;5073860;28;20024;-86
2023/10/28 00:16:28;;;;;;;6.82;1.13;;;;;;;13.34;100.00;93086.69;5074809;28;20059;-86
2023/10/28 00:18:54;;;;;;;8.52;0.90;;;;;;;13.54;100.00;93075.47;5073499;28;20029;-86
2023/10/28 00:21:21;;;;;;;6.00;0.90;;;;;;;13.28;100.00;93117.63;5057067;28;20345;-86
2023/10/28 00:26:30;;;;;;;9.40;0.77;;;;;;;14.14;100.00;93133.38;5073733;28;20039;-86
2023/10/28 00:28:56;;;;;;;6.25;1.25;;;;;;;13.95;100.00;93109.31;5056950;28;20024;-86
2023/10/28 00:31:21;;;;;;;5.13;0.70;;;;;;;13.70;100.00;93123.06;5073345;28;20036;-86
2023/10/28 00:33:47;;;;;;;6.53;0.85;;;;;;;13.66;100.00;93126.66;5057487;28;20621;-86
2023/10/28 00:38:56;;;;;;;3.50;0.75;;;;;;;14.02;100.00;93106.19;5073778;28;20055;-86
2023/10/28 00:41:21;;;;;;;8.40;1.55;;;;;;;14.05;100.00;93129.25;5072936;28;20032;-86
2023/10/28 00:43:48;;;;;;;8.90;0.80;;;;;;;13.87;100.00;93112.78;5056401;28;20036;-86
2023/10/28 00:46:14;;;;;;;6.80;1.08;;;;;;;13.64;100.00;93098.03;5091707;28;20047;-86
2023/10/28 00:48:40;;;;;;;5.68;0.75;;;;;;;13.04;100.00;93129.44;5094781;28;20114;-86
2023/10/28 00:51:06;;;;;;;6.00;0.57;;;;;;;13.46;100.00;93133.38;5093705;28;20093;-86
2023/10/28 00:53:31;;;;;;;3.13;0.60;;;;;;;13.79;100.00;93115.13;5093634;28;20437;-86
2023/10/28 00:55:59;;;;;;;7.28;0.60;;;;;;;13.97;100.00;93142.16;5093649;28;20028;-86
2023/10/28 00:58:24;;;;;;;6.32;0.82;;;;;;;14.34;97.58;93133.72;5097236;28;20063;-85
2023/10/28 01:06:18;;;;;;;8.20;0.93;;;;;;;13.71;100.00;93132.50;5098559;28;20165;-86
2023/10/28 01:08:43;;;;;;;5.50;0.90;;;;;;;13.42;100.00;93133.25;5097030;28;20036;-86
2023/10/28 01:11:09;;;;;;;8.18;1.10;;;;;;;13.39;100.00;93142.53;5097112;28;20058;-86
2023/10/28 01:13:34;;;;;;;9.07;0.88;;;;;;;13.16;100.00;93147.22;5097229;28;20436;-86
2023/10/28 01:16:00;;;;;;;7.80;0.88;;;;;;;12.73;100.00;93140.94;5080111;28;20028;-86
2023/10/28 01:21:13;;;;;;;8.70;1.20;;;;;;;12.86;100.00;93147.13;5097236;28;20146;-86
2023/10/28 01:23:38;;;;;;;9.27;1.05;;;;;;;12.77;100.00;93141.88;5097062;28;20028;-86
2023/10/28 01:26:03;;;;;;;8.43;1.05;;;;;;;12.77;100.00;93151.59;5080440;28;20349;-86
2023/10/28 01:28:48;;;;;;;5.68;1.35;;;;;;;13.15;100.00;93156.97;5080123;28;20090;-86
2023/10/28 01:31:14;;;;;;;4.55;0.88;;;;;;;13.50;100.00;93144.84;5096676;28;20056;-86
2023/10/28 01:33:59;;;;;;;7.43;1.13;;;;;;;14.31;99.59;93129.09;5096782;28;20074;-86
2023/10/28 01:36:24;;;;;;;8.57;1.10;;;;;;;14.40;94.60;93144.84;5079504;28;20496;-85
2023/10/28 01:38:49;;;;;;;5.18;0.95;;;;;;;14.61;91.25;93141.41;5096664;28;20038;-86
2023/10/28 01:41:15;;;;;;;10.27;1.00;;;;;;;14.27;100.00;93165.84;5097392;28;20035;-86
2023/10/28 01:46:24;;;;;;;13.05;1.38;;;;;;;13.46;100.00;93146.53;5096680;28;20043;-87
2023/10/28 01:48:49;;;;;;;10.50;0.95;;;;;;;13.10;100.00;93164.25;5096302;28;20028;-87
2023/10/28 01:51:15;;;;;;;3.80;0.82;;;;;;;13.71;100.00;93163.34;5096495;28;20040;-86
2023/10/28 01:53:40;;;;;;;8.27;1.27;;;;;;;13.95;100.00;93165.41;5096894;28;20035;-86
2023/10/28 01:56:06;;;;;;;5.40;0.60;;;;;;;14.05;100.00;93174.00;5097644;28;20039;-87
2023/10/28 01:58:32;;;;;;;11.45;1.25;;;;;;;14.23;100.00;93178.09;5097598;28;20039;-86
2023/10/28 02:00:58;;;;;;;5.18;0.93;;;;;;;14.05;100.00;93171.38;5085665;28;20030;-86
2023/10/28 02:03:24;;;;;;;3.65;0.82;;;;;;;13.88;100.00;93174.88;5080566;28;20040;-86
2023/10/28 02:05:49;;;;;;;6.03;1.08;;;;;;;13.68;100.00;93187.63;5094585;28;20028;-87
2023/10/28 02:08:14;;;;;;;3.72;0.82;;;;;;;13.56;100.00;93177.78;5091646;28;20043;-86
2023/10/28 02:10:40;;;;;;;11.05;1.00;;;;;;;13.66;100.00;93169.56;5097775;28;20039;-86
2023/10/28 02:13:05;;;;;;;5.47;0.75;;;;;;;13.63;100.00;93172.81;5077548;28;20131;-86
2023/10/28 02:15:49;;;;;;;1.30;0.52;;;;;;;13.57;100.00;93166.94;5097552;28;20397;-86
2023/10/28 02:18:34;;;;;;;4.88;1.13;;;;;;;13.38;100.00;93164.66;5098503;28;20171;-86
2023/10/28 02:20:59;;;;;;;6.70;0.80;;;;;;;13.19;100.00;93166.84;5098300;28;20407;-86
2023/10/28 02:23:26;;;;;;;5.10;0.93;;;;;;;13.24;100.00;93174.59;5080365;28;20035;-86
2023/10/28 02:25:51;;;;;;;5.45;0.90;;;;;;;13.17;100.00;93169.03;5080611;28;20028;-86
2023/10/28 02:28:17;;;;;;;6.70;0.80;;;;;;;13.18;100.00;93160.06;5096496;28;20043;-86
2023/10/28 02:30:42;;;;;;;3.75;0.50;;;;;;;13.02;100.00;93171.06;5097954;28;20035;-86
2023/10/28 02:33:08;;;;;;;3.38;0.70;;;;;;;13.20;100.00;93166.56;5096520;28;20142;-86
2023/10/28 02:35:34;;;;;;;6.90;0.68;;;;;;;13.04;100.00;93168.88;5080027;28;20088;-86
2023/10/28 02:37:59;;;;;;;3.88;0.60;;;;;;;13.06;100.00;93174.63;5098047;28;20047;-86
2023/10/28 02:40:24;;;;;;;3.90;0.70;;;;;;;12.82;100.00;93180.34;5080003;28;20089;-86
2023/10/28 02:42:50;;;;;;;10.32;0.60;;;;;;;12.89;100.00;93169.38;5079984;28;20345;-87
2023/10/28 02:48:18;;;;;;;1.20;0.30;;;;;;;12.81;100.00;93171.72;5096492;28;20093;-86
2023/10/28 02:50:43;;;;;;;2.28;0.50;;;;;;;12.91;100.00;93169.81;5078377;28;20028;-86
2023/10/28 02:53:28;;;;;;;4.47;0.68;;;;;;;12.92;100.00;93168.78;5095138;28;20046;-86
2023/10/28 02:56:12;;;;;;;3.22;0.77;;;;;;;12.81;100.00;93171.72;5097817;28;20433;-86
2023/10/28 03:01:21;;;;;;;2.45;0.47;;;;;;;13.04;100.00;93186.53;5096607;28;20035;-86
2023/10/28 03:04:05;;;;;;;8.25;1.00;;;;;;;12.73;100.00;93185.63;5079686;28;20032;-86
2023/10/28 03:06:32;;;;;;;4.13;1.17;;;;;;;12.66;100.00;93193.19;5096133;28;20036;-86
2023/10/28 03:08:59;;;;;;;2.15;0.70;;;;;;;12.58;100.00;93198.13;5077912;28;20042;-86
2023/10/28 03:11:24;;;;;;;5.28;0.85;;;;;;;12.28;100.00;93207.69;5076431;28;20044;-86
2023/10/28 03:13:50;;;;;;;2.65;0.73;;;;;;;12.29;100.00;93206.59;5065519;28;20430;-86
2023/10/28 03:16:15;;;;;;;4.88;0.50;;;;;;;12.09;100.00;93202.69;5059619;28;20036;-86
2023/10/28 03:18:41;;;;;;;2.90;0.60;;;;;;;11.91;100.00;93209.69;5076038;28;20028;-86
2023/10/28 03:21:06;;;;;;;5.22;1.25;;;;;;;11.91;100.00;93214.94;5075836;28;20069;-87
2023/10/28 03:23:32;;;;;;;2.00;0.40;;;;;;;11.85;100.00;93215.09;5084754;28;20035;-87
2023/10/28 03:25:57;;;;;;;9.63;0.82;;;;;;;11.54;100.00;93220.34;5071572;28;20016;-87
2023/10/28 03:28:23;;;;;;;4.35;0.63;;;;;;;11.49;100.00;93210.75;5087493;28;20035;-87
2023/10/28 03:31:11;;;;;;;3.83;0.82;;;;;;;11.54;100.00;93223.72;5065827;28;20027;-86
2023/10/28 03:33:55;;;;;;;2.22;0.50;;;;;;;11.32;100.00;93195.69;5082998;28;20093;-87
2023/10/28 03:36:39;;;;;;;2.70;0.60;;;;;;;11.11;100.00;93217.16;5089412;28;20027;-86
2023/10/28 03:39:05;;;;;;;6.13;0.50;;;;;;;11.05;100.00;93213.13;5076970;28;20028;-86
2023/10/28 03:41:32;;;;;;;9.35;0.70;;;;;;;11.35;100.00;93223.97;5095810;28;20031;-86
2023/10/28 03:43:57;;;;;;;3.25;0.80;;;;;;;11.34;100.00;93219.00;5078160;28;20031;-87
2023/10/28 03:46:42;;;;;;;4.72;0.93;;;;;;;10.89;100.00;93218.69;5081387;28;20028;-86
2023/10/28 03:49:07;;;;;;;4.65;0.70;;;;;;;10.99;100.00;93215.09;5078912;28;20020;-86
2023/10/28 03:51:51;;;;;;;3.20;0.73;;;;;;;11.08;100.00;93230.09;5087411;28;20077;-86
2023/10/28 03:54:17;;;;;;;4.93;0.93;;;;;;;11.05;100.00;93221.00;5095248;28;20024;-87
2023/10/28 03:56:42;;;;;;;5.22;1.00;;;;;;;11.12;100.00;93220.56;5087725;28;20418;-86
2023/10/28 03:59:26;;;;;;;3.15;0.68;;;;;;;10.92;100.00;93233.06;5081115;28;20016;-86
2023/10/28 04:01:52;;;;;;;4.47;0.60;;;;;;;10.87;100.00;93238.44;5084180;28;20349;-86
2023/10/28 04:04:18;;;;;;;4.72;1.08;;;;;;;10.95;100.00;93240.31;5092266;28;20024;-87
2023/10/28 04:06:43;;;;;;;3.70;0.90;;;;;;;10.88;100.00;93239.97;5075841;28;20191;-86
2023/10/28 04:09:09;;;;;;;7.80;1.10;;;;;;;10.84;100.00;93229.31;5092560;28;20115;-86
2023/10/28 04:11:34;;;;;;;3.38;0.98;;;;;;;10.81;100.00;93229.91;5092314;28;20337;-87
2023/10/28 04:13:59;;;;;;;3.78;0.63;;;;;;;10.83;100.00;93226.97;5075849;28;20028;-86
2023/10/28 04:16:25;;;;;;;4.63;0.90;;;;;;;10.88;100.00;93238.13;5095488;28;20020;-86
2023/10/28 04:18:51;;;;;;;5.82;0.73;;;;;;;10.91;100.00;93239.38;5095470;28;20056;-87
2023/10/28 04:21:16;;;;;;;5.22;0.95;;;;;;;10.97;100.00;93240.03;5095957;28;20052;-87
2023/10/28 04:23:42;;;;;;;4.57;0.80;;;;;;;10.98;100.00;93246.81;5077936;28;20107;-86
2023/10/28 04:31:35;;;;;;;6.47;0.80;;;;;;;11.16;100.00;93253.75;5076313;28;20089;-86
2023/10/28 04:34:19;;;;;;;7.10;1.05;;;;;;;10.94;100.00;93256.38;5062649;28;20111;-86
2023/10/28 04:36:45;;;;;;;7.72;1.05;;;;;;;10.71;100.00;93254.47;5080253;28;20465;-86
2023/10/28 04:39:10;;;;;;;4.70;1.00;;;;;;;10.58;100.00;93265.75;5079095;28;20028;-86
2023/10/28 04:41:36;;;;;;;7.45;0.80;;;;;;;10.68;100.00;93265.53;5062129;28;20441;-86
2023/10/28 04:46:45;;;;;;;14.07;0.80;;;;;;;10.68;100.00;93270.75;5080164;28;20036;-85
2023/10/28 04:49:11;;;;;;;4.38;0.90;;;;;;;10.58;100.00;93266.53;5079033;28;20337;-86
2023/10/28 04:52:14;;;;;;;23.50;1.50;;;;;;;10.44;100.00;93271.78;5078656;28;20020;-86
2023/10/28 04:54:39;;;;;;;4.55;0.85;;;;;;;10.47;100.00;93275.66;5079955;28;20031;-86
2023/10/28 04:57:04;;;;;;;4.40;0.95;;;;;;;10.43;100.00;93279.94;5079904;28;20020;-86
2023/10/28 04:59:30;;;;;;;7.65;0.95;;;;;;;10.45;100.00;93283.03;5062043;28;20025;-86
2023/10/28 05:01:56;;;;;;;12.18;0.95;;;;;;;10.39;100.00;93282.31;5078560;28;20024;-86
2023/10/28 05:04:24;;;;;;;6.55;1.00;;;;;;;10.53;100.00;93300.69;5062318;28;20020;-86
2023/10/28 05:06:50;;;;;;;13.25;1.40;;;;;;;10.92;100.00;93280.22;5078614;28;20031;-86
2023/10/28 05:09:15;;;;;;;6.22;1.20;;;;;;;10.86;100.00;93276.19;5078498;28;20033;-86
2023/10/28 05:11:42;;;;;;;6.72;1.23;;;;;;;10.32;100.00;93295.81;5061486;28;20029;-86
2023/10/28 05:14:09;;;;;;;8.57;1.42;;;;;;;10.61;100.00;93304.47;5078727;28;20028;-86
2023/10/28 05:16:35;;;;;;;8.60;1.35;;;;;;;10.57;100.00;93308.75;5061911;28;20028;-86
2023/10/28 05:19:00;;;;;;;2.70;0.98;;;;;;;10.39;100.00;93305.88;5078339;28;20426;-86
2023/10/28 05:21:27;;;;;;;15.55;1.40;;;;;;;10.52;100.00;93307.00;5061358;28;20066;-86
2023/10/28 05:24:11;;;;;;;9.38;1.42;;;;;;;10.36;100.00;93305.72;5078121;28;20069;-86
2023/10/28 05:26:37;;;;;;;10.85;1.70;;;;;;;10.36;100.00;93309.09;5094892;28;20066;-86
2023/10/28 05:29:02;;;;;;;5.35;1.10;;;;;;;10.30;100.00;93329.34;5081701;28;20031;-86
2023/10/28 05:31:28;;;;;;;12.40;1.10;;;;;;;10.11;100.00;93318.97;5098383;28;20081;-86
2023/10/28 05:33:53;;;;;;;6.28;0.98;;;;;;;10.35;100.00;93323.25;5093237;28;20028;-86
2023/10/28 05:36:18;;;;;;;9.23;1.20;;;;;;;10.24;100.00;93332.34;5078029;28;20056;-86
2023/10/28 05:38:44;;;;;;;8.23;1.30;;;;;;;10.25;100.00;93310.34;5079158;28;20028;-86
2023/10/28 05:41:10;;;;;;;10.82;1.00;;;;;;;10.30;100.00;93318.88;5077787;28;20028;-86
2023/10/28 05:43:54;;;;;;;6.38;0.98;;;;;;;10.59;100.00;93328.31;5071570;28;20024;-85
2023/10/28 05:49:44;;;;;;;19.90;1.80;;;;;;;10.70;100.00;93343.84;5099171;28;20085;-86
2023/10/28 05:52:12;;;;;;;8.27;1.25;;;;;;;10.71;100.00;93340.16;5098007;28;20063;-86
2023/10/28 05:57:40;;;;;;;10.57;1.45;;;;;;;10.15;100.00;93358.44;5098852;28;20039;-86
2023/10/28 06:00:16;;;;;;;7.82;1.10;;;;;;;10.28;100.00;93362.16;5079428;28;20115;-85
2023/10/28 06:02:42;;;;;;;3.50;0.88;;;;;;;10.33;100.00;93364.66;5097709;28;20043;-84
2023/10/28 06:05:08;;;;;;;6.28;1.20;;;;;;;10.31;100.00;93378.03;5098064;28;20332;-84
2023/10/28 06:07:33;;;;;;;9.32;1.55;;;;;;;10.43;100.00;93376.81;5097720;28;20032;-85
2023/10/28 06:09:59;;;;;;;9.45;1.33;;;;;;;10.51;100.00;93381.38;5098152;28;20036;-85
2023/10/28 06:12:25;;;;;;;5.97;1.10;;;;;;;10.48;100.00;93389.84;5080677;28;20081;-85
2023/10/28 06:14:51;;;;;;;5.43;0.90;;;;;;;10.68;100.00;93388.66;5097755;28;20337;-85
2023/10/28 06:17:17;;;;;;;6.05;0.88;;;;;;;10.84;100.00;93389.13;5097475;28;20349;-85
2023/10/28 06:19:42;;;;;;;8.35;1.00;;;;;;;10.94;100.00;93375.06;5080480;28;20040;-85
2023/10/28 06:22:11;;;;;;;6.05;1.02;;;;;;;11.06;100.00;93384.25;5097289;28;20059;-85
2023/10/28 06:27:22;;;;;;;13.57;1.52;;;;;;;11.42;100.00;93404.50;5077533;28;20079;-86
2023/10/28 06:29:47;;;;;;;7.80;1.38;;;;;;;11.54;100.00;93403.97;5095818;28;20016;-85
2023/10/28 06:34:57;;;;;;;8.13;1.20;;;;;;;11.73;100.00;93422.94;5087144;28;20123;-86
2023/10/28 06:40:44;;;;;;;6.20;1.10;;;;;;;12.25;100.00;93434.91;5077877;28;20424;-86
2023/10/28 06:43:29;;;;;;;6.28;1.45;;;;;;;12.18;100.00;93436.41;5077924;28;20342;-85
2023/10/28 06:46:16;;;;;;;12.88;1.25;;;;;;;12.29;100.00;93433.22;5060073;28;20028;-85
2023/10/28 06:48:41;;;;;;;9.35;1.40;;;;;;;12.31;100.00;93438.19;5085496;28;20024;-86
2023/10/28 06:51:07;;;;;;;10.45;2.00;;;;;;;12.42;100.00;93442.13;5079655;28;20039;-86
2023/10/28 06:53:33;;;;;;;8.63;1.05;;;;;;;12.59;100.00;93445.91;5078060;28;20024;-85
2023/10/28 06:56:17;;;;;;;14.35;1.60;;;;;;;12.62;100.00;93442.66;5079584;28;20046;-85
2023/10/28 06:58:42;;;;;;;4.68;1.10;;;;;;;12.72;100.00;93454.75;5096614;28;20024;-85
2023/10/28 07:01:09;;;;;;;8.73;1.10;;;;;;;12.86;100.00;93452.81;5097305;28;20349;-85
2023/10/28 07:03:37;;;;;;;8.90;1.52;;;;;;;12.71;100.00;93454.00;5080020;28;20020;-85
2023/10/28 07:06:04;;;;;;;8.95;1.45;;;;;;;12.90;100.00;93460.06;5079731;28;20039;-85
2023/10/28 07:08:30;;;;;;;7.10;0.90;;;;;;;12.97;100.00;93470.94;5096968;28;20333;-84
2023/10/28 07:10:55;;;;;;;16.42;1.55;;;;;;;13.08;100.00;93472.22;5079580;28;20026;-85
2023/10/28 07:13:21;;;;;;;7.55;1.30;;;;;;;13.07;100.00;93469.88;5080037;28;20081;-85
2023/10/28 07:15:46;;;;;;;7.90;1.30;;;;;;;13.07;100.00;93470.69;5096664;28;20036;-85
2023/10/28 07:18:13;;;;;;;6.22;1.13;;;;;;;13.18;100.00;93470.38;5096598;28;20073;-85
2023/10/28 07:20:40;;;;;;;5.18;1.08;;;;;;;13.31;100.00;93481.88;5096512;28;20020;-85
2023/10/28 07:23:05;;;;;;;6.95;1.33;;;;;;;13.34;100.00;93486.53;5079604;28;20013;-85
2023/10/28 07:25:31;;;;;;;8.23;1.30;;;;;;;13.33;100.00;93492.88;5096183;28;20322;-84
2023/10/28 07:27:56;;;;;;;9.45;1.13;;;;;;;13.56;100.00;93490.94;5096095;28;20024;-85
2023/10/28 07:30:22;;;;;;;7.80;1.25;;;;;;;13.60;100.00;93485.84;5096385;28;20032;-85
2023/10/28 07:32:47;;;;;;;12.82;1.10;;;;;;;13.62;100.00;93510.75;5079288;28;20027;-85
2023/10/28 07:35:16;;;;;;;5.63;1.20;;;;;;;13.74;100.00;93493.59;5097754;28;20083;-84
2023/10/28 07:37:42;;;;;;;12.38;1.17;;;;;;;13.81;100.00;93523.63;5097135;28;20035;-85
2023/10/28 07:40:08;;;;;;;6.20;1.10;;;;;;;13.82;97.08;93508.63;5095709;28;20044;-85
2023/10/28 07:42:34;;;;;;;10.52;1.45;;;;;;;13.88;100.00;93510.00;5096099;28;20035;-84
2023/10/28 07:45:18;;;;;;;4.07;0.88;;;;;;;13.88;100.00;93533.72;5096133;28;20032;-84
2023/10/28 07:47:44;;;;;;;7.80;1.10;;;;;;;13.91;93.91;93516.53;5093416;28;20030;-85
2023/10/28 07:50:09;;;;;;;9.65;1.15;;;;;;;14.09;87.63;93522.59;5079073;28;20040;-85
2023/10/28 07:52:35;;;;;;;2.80;0.80;;;;;;;14.22;83.44;93531.41;5094919;28;20085;-85
2023/10/28 07:55:19;;;;;;;5.10;0.98;;;;;;;14.27;83.77;93532.03;5095781;28;20089;-85
2023/10/28 07:57:44;;;;;;;5.30;1.10;;;;;;;14.45;77.65;93537.28;5079050;28;20035;-85
2023/10/28 08:00:11;;;;;;;4.45;0.85;;;;;;;14.64;67.61;93530.94;5079066;28;20057;-84
2023/10/28 08:05:39;;;;;;;3.40;0.95;;;;;;;14.52;70.81;93547.34;5095727;28;20436;-84
2023/10/28 08:08:05;;;;;;;3.90;0.88;;;;;;;14.60;70.95;93551.06;5096865;28;20032;-85
2023/10/28 08:10:32;;;;;;;2.70;0.77;;;;;;;14.59;70.75;93565.34;5079176;28;20440;-84
2023/10/28 08:12:58;;;;;;;3.58;0.85;;;;;;;14.67;70.81;93557.41;5095396;28;20039;-84
2023/10/28 08:16:01;;;;;;;3.70;0.93;;;;;;;14.71;74.66;93557.56;5095642;28;20032;-84
2023/10/28 08:18:30;;;;;;;4.85;1.05;;;;;;;14.62;73.27;93559.44;5096505;28;20058;-83
2023/10/28 08:20:55;;;;;;;4.68;1.15;;;;;;;14.68;88.27;93553.69;5075693;28;20039;-85
2023/10/28 08:23:21;;;;;;;10.18;1.00;;;;;;;14.73;84.85;93565.22;5092090;28;20028;-85
2023/10/28 08:25:46;;;;;;;7.47;1.10;;;;;;;14.88;100.00;93571.84;5076319;28;20033;-85
2023/10/28 08:28:12;;;;;;;6.00;1.33;;;;;;;14.86;84.90;93577.44;5076591;28;20453;-85
2023/10/28 08:30:37;;;;;;;6.03;1.02;;;;;;;14.89;78.60;93573.38;5095053;28;20043;-85
2023/10/28 08:33:03;;;;;;;4.78;0.70;;;;;;;14.97;76.16;93578.63;5095082;28;20059;-85
2023/10/28 08:35:28;;;;;;;4.07;1.08;;;;;;;14.93;74.80;93580.34;5095648;28;20064;-85
2023/10/28 08:38:12;;;;;;;6.13;2.08;;;;;;;15.12;84.28;93585.28;5095528;28;20040;-85
2023/10/28 08:40:44;;;;;;;8.63;1.35;;;;;;;15.09;85.34;93593.03;5095508;28;20104;-85
2023/10/28 08:43:09;;;;;;;6.22;1.17;;;;;;;15.20;85.31;93596.13;5095328;28;20142;-85
2023/10/28 08:45:35;;;;;;;4.90;1.10;;;;;;;15.30;92.98;93584.47;5077965;28;20119;-85
2023/10/28 08:48:01;;;;;;;3.55;1.00;;;;;;;15.40;75.13;93587.53;5078472;28;20318;-85
2023/10/28 08:50:27;;;;;;;3.22;0.82;;;;;;;15.34;69.26;93588.78;5089426;28;20036;-85
2023/10/28 08:52:57;;;;;;;3.78;0.75;;;;;;;15.45;72.95;93596.34;5095086;28;20127;-85
2023/10/28 08:55:25;;;;;;;6.85;1.20;;;;;;;15.59;69.47;93599.56;5095491;28;20036;-85
2023/10/28 09:01:01;;;;;;;6.63;0.77;;;;;;;15.60;73.68;93598.47;5096186;28;20055;-84
2023/10/28 09:06:12;;;;;;;8.88;1.27;;;;;;;15.58;69.62;93592.72;5095260;28;20035;-85
2023/10/28 09:09:00;;;;;;;3.55;0.70;;;;;;;15.53;70.75;93603.47;5078396;28;20032;-84
2023/10/28 09:11:27;;;;;;;6.03;1.05;;;;;;;15.32;72.69;93598.88;5094972;28;20024;-83
2023/10/28 09:13:53;;;;;;;5.18;1.10;;;;;;;15.51;73.68;93595.84;5078413;28;20028;-83
2023/10/28 09:16:18;;;;;;;8.15;1.27;;;;;;;15.58;75.93;93605.91;5095365;28;20024;-85
2023/10/28 09:22:09;;;;;;;8.57;1.40;;;;;;;15.96;73.76;93601.72;5099352;28;20038;-84
2023/10/28 09:24:34;;;;;;;5.15;1.35;;;;;;;15.98;70.88;93599.53;5098293;28;20077;-85
2023/10/28 09:27:00;;;;;;;4.68;1.15;;;;;;;16.08;71.51;93606.34;5082010;28;20387;-85
2023/10/28 09:29:47;;;;;;;6.78;1.45;;;;;;;16.07;72.71;93605.56;5098014;28;20036;-84
2023/10/28 09:32:31;;;;;;;7.03;1.45;;;;;;;16.20;70.45;93603.75;5098920;28;20051;-85
2023/10/28 09:34:57;;;;;;;10.75;1.17;;;;;;;16.34;69.91;93621.22;5097864;28;20040;-84
2023/10/28 09:37:23;;;;;;;6.93;1.20;;;;;;;16.40;67.34;93615.44;5097582;28;20495;-84
2023/10/28 09:40:08;;;;;;;6.28;0.95;;;;;;;16.16;64.22;93613.41;5092293;28;20034;-84
2023/10/28 09:45:37;;;;;;;5.25;1.27;;;;;;;16.24;64.47;93612.59;5088710;28;20050;-86
2023/10/28 09:48:14;;;;;;;5.07;1.42;;;;;;;16.48;65.88;93632.31;5097699;28;20027;-87
2023/10/28 09:50:59;;;;;;;5.18;1.27;;;;;;;16.54;64.02;93627.63;5090412;28;20028;-86
2023/10/28 09:53:33;;;;;;;9.20;1.35;;;;;;;16.44;61.08;93622.75;5097995;28;20031;-85
2023/10/28 09:59:13;;;;;;;4.47;0.90;;;;;;;16.67;62.83;93629.22;5098053;28;20035;-85
2023/10/28 10:01:48;;;;;;;;;;;;;;;16.40;59.49;93622.59;5080394;28;20036;-87
2023/10/28 10:04:40;;;;;;;5.70;1.10;;;;;;;16.32;59.85;93632.13;5097974;28;19956;-85
2023/10/28 10:07:06;;;;;;;4.53;0.75;;;;;;;16.45;58.43;93627.69;5097845;28;20028;-84
2023/10/28 10:09:47;;;;;;;4.00;1.00;;;;;;;16.67;62.47;93631.13;5080930;28;20058;-85
2023/10/28 10:12:31;;;;;;;3.55;0.98;;;;;;;16.64;59.00;93624.59;5097424;28;20039;-87
2023/10/28 10:15:19;;;;;;;6.43;0.93;;;;;;;16.39;58.52;93636.91;5097795;28;20035;-88
2023/10/28 10:18:04;;;;;;;7.88;0.82;;;;;;;16.30;59.27;93621.13;5098690;28;20119;-87
2023/10/28 10:20:34;;;;;;;7.22;1.00;;;;;;;16.31;58.43;93601.53;5097490;28;20105;-87
2023/10/28 10:25:45;;;;;;;8.65;1.15;;;;;;;16.36;58.40;93614.53;5097440;28;20483;-87
2023/10/28 10:28:13;;;;;;;6.22;0.85;;;;;;;16.49;58.25;93638.41;5097193;28;20036;-87
2023/10/28 10:30:39;;;;;;;2.33;0.80;;;;;;;16.40;58.83;93623.34;5096714;28;20333;-88
2023/10/28 10:33:24;;;;;;;4.80;0.85;;;;;;;16.50;59.34;93624.09;5097730;28;20101;-86
2023/10/28 10:35:50;;;;;;;7.40;0.80;;;;;;;16.55;58.50;93621.22;5097172;28;20035;-88
2023/10/28 10:38:16;;;;;;;2.38;0.82;;;;;;;16.65;57.08;93612.16;5097655;28;20040;-86
2023/10/28 10:40:41;;;;;;;3.28;0.85;;;;;;;16.45;58.92;93625.03;5098479;28;20032;-87
2023/10/28 10:43:07;;;;;;;3.88;0.88;;;;;;;16.62;59.30;93637.38;5097983;28;20059;-86
2023/10/28 10:45:34;;;;;;;7.07;0.82;;;;;;;16.95;59.35;93622.63;5097006;28;20031;-87
2023/10/28 10:48:01;;;;;;;2.40;0.90;;;;;;;16.82;58.42;93633.16;5097209;28;20498;-88
2023/10/28 10:50:46;;;;;;;3.90;0.98;;;;;;;16.89;57.97;93613.34;5080143;28;20031;-86
2023/10/28 10:53:11;;;;;;;4.38;1.00;;;;;;;17.04;59.61;93625.97;5096748;28;20032;-88
2023/10/28 10:55:38;;;;;;;2.78;0.90;;;;;;;16.85;58.13;93631.72;5080368;28;20387;-87
2023/10/28 10:58:03;;;;;;;5.45;0.73;;;;;;;16.92;58.72;93628.56;5097037;28;20028;-88
2023/10/28 11:00:29;;;;;;;8.60;0.93;;;;;;;16.87;59.66;93621.63;5096954;28;20503;-88
2023/10/28 11:02:58;;;;;;;4.50;0.98;;;;;;;16.75;60.18;93634.78;5097224;28;20081;-86
2023/10/28 11:05:27;;;;;;;4.38;0.73;;;;;;;16.74;59.57;93643.81;5096713;28;20055;-84
2023/10/28 11:07:53;;;;;;;3.95;1.00;;;;;;;16.98;60.59;93632.56;5096616;28;20059;-86
2023/10/28 11:10:37;;;;;;;10.93;1.25;;;;;;;16.80;61.30;93629.28;5096499;28;20075;-84
2023/10/28 11:13:04;;;;;;;5.43;0.82;;;;;;;16.40;62.11;93630.53;5096830;28;20416;-86
2023/10/28 11:18:15;;;;;;;5.32;1.05;;;;;;;16.51;60.52;93634.34;5096757;28;20070;-86
2023/10/28 11:20:42;;;;;;;7.85;0.95;;;;;;;16.74;59.60;93626.06;5096442;28;20027;-86
2023/10/28 11:23:08;;;;;;;3.90;0.60;;;;;;;16.76;61.02;93610.63;5094885;28;20081;-85
2023/10/28 11:25:34;;;;;;;10.80;0.90;;;;;;;16.72;59.26;93574.59;5096359;28;20036;-85
2023/10/28 11:28:06;;;;;;;6.03;1.42;;;;;;;16.75;62.42;93627.59;5096103;28;20506;-84
2023/10/28 11:30:31;;;;;;;8.35;1.40;;;;;;;16.78;58.95;93582.00;5096212;28;20391;-84
2023/10/28 11:32:56;;;;;;;9.02;0.80;;;;;;;17.02;60.64;93616.84;5090436;28;20033;-84
2023/10/28 11:35:22;;;;;;;3.80;0.85;;;;;;;17.14;59.96;93619.50;5086214;28;20130;-85
2023/10/28 11:37:48;;;;;;;3.83;0.95;;;;;;;16.76;61.33;93618.56;5095916;28;20412;-85
2023/10/28 11:40:13;;;;;;;2.42;0.70;;;;;;;17.25;61.60;93614.59;5079119;28;20353;-85
2023/10/28 11:42:39;;;;;;;6.18;0.70;;;;;;;17.07;59.97;93617.41;5079063;28;20019;-84
2023/10/28 11:45:09;;;;;;;4.50;1.00;;;;;;;17.12;61.36;93624.34;5078653;28;20031;-85
2023/10/28 11:47:35;;;;;;;3.45;0.80;;;;;;;17.12;58.61;93627.00;5079917;28;20036;-84
2023/10/28 11:50:00;;;;;;;2.00;0.70;;;;;;;17.17;60.70;93634.75;5095620;28;20445;-84
2023/10/28 11:52:26;;;;;;;3.33;0.80;;;;;;;17.47;59.54;93625.84;5096572;28;20040;-85
2023/10/28 11:54:53;;;;;;;6.25;0.88;;;;;;;17.28;57.99;93626.38;5093635;28;20024;-85
2023/10/28 11:57:19;;;;;;;5.07;0.90;;;;;;;17.07;59.85;93621.91;5091225;28;20019;-84
2023/10/28 11:59:44;;;;;;;4.03;1.10;;;;;;;17.35;58.73;93629.28;5084543;28;20035;-84
2023/10/28 12:02:10;;;;;;;3.45;0.82;;;;;;;17.91;62.21;93647.31;5073926;28;20158;-84
2023/10/28 12:04:35;;;;;;;5.80;0.80;;;;;;;17.29;57.97;93634.00;5094918;28;20028;-85
2023/10/28 12:10:06;;;;;;;3.60;1.35;;;;;;;17.36;59.32;93647.50;5093402;28;20043;-84
2023/10/28 12:12:32;;;;;;;7.43;0.80;;;;;;;17.18;59.13;93640.81;5096752;28;20028;-84
2023/10/28 12:14:57;;;;;;;5.22;1.27;;;;;;;17.31;59.94;93646.91;5095461;28;20118;-83
2023/10/28 12:20:07;;;;;;;5.75;1.00;;;;;;;17.35;59.46;93653.84;5083132;28;20039;-84
2023/10/28 12:22:35;;;;;;;4.30;0.75;;;;;;;17.26;58.11;93647.91;5096586;28;20032;-84
2023/10/28 12:25:01;;;;;;;6.78;1.02;;;;;;;17.50;58.47;93651.69;5079043;28;20028;-84
2023/10/28 12:27:45;;;;;;;5.38;1.08;;;;;;;17.53;55.97;93651.81;5095308;28;20035;-85
2023/10/28 12:30:29;;;;;;;3.85;1.20;;;;;;;17.75;57.04;93657.81;5075503;28;20033;-85
2023/10/28 12:33:14;;;;;;;3.25;0.77;;;;;;;17.47;57.55;93645.19;5089085;28;20102;-86
2023/10/28 12:35:39;;;;;;;11.32;1.10;;;;;;;17.91;58.42;93643.91;5094143;28;20119;-84
2023/10/28 12:38:05;;;;;;;7.63;1.00;;;;;;;18.33;59.82;93648.19;5078773;28;20173;-84
2023/10/28 12:40:32;;;;;;;6.88;0.80;;;;;;;18.34;58.23;93649.75;5095352;28;20368;-85
2023/10/28 12:43:16;;;;;;;3.60;0.80;;;;;;;18.63;59.39;93645.25;5091645;28;20027;-83
2023/10/28 12:45:41;;;;;;;6.05;1.30;;;;;;;18.21;58.23;93662.25;5063092;28;20350;-83
2023/10/28 12:48:26;;;;;;;5.38;0.93;;;;;;;17.94;57.08;93665.22;5074828;28;20032;-83
2023/10/28 12:50:51;;;;;;;8.15;1.27;;;;;;;18.23;56.23;93654.72;5074890;28;20468;-83
2023/10/28 12:53:35;;;;;;;3.38;0.75;;;;;;;18.60;54.79;93661.84;5078512;28;20040;-84